Verbena, Alabama
Current Conditions -  °F | °C
As of 1:35 PM on Thursday 18 Dec 2014 (Local Time) from K1A9 Reporting Station
Overcast Overcast  
Wind Chill: 14°   Ceiling: 4800
Heat Index: 14°   Visibility: 10mi
Dew Point: -5°   Wind: 3mph
Humidity: 27%   Direction: 230°SW
Pressure: 30.13"   Gusts: NA
Location:  32.75°N, 86.51°W
Report Text: K1A9 181935Z AUTO 23003KT 10SM OVC048 14/M05 A3013 RMK AO2 T01411046
Loading
Personal Weather Stations






























Interactive Weather Map New forecast layout! Learn more

10-Day Weather Forecast

Advertisements
Track Severe Weather on mobile